sensor_id;sensor_type;location;lat;lon;timestamp;P1;durP1;ratioP1;P2;durP2;ratioP2
66721;SDS011;53633;49.932;10.884;2023-05-14T00:00:56;8.85;;;4.45;;
66721;SDS011;53633;49.932;10.884;2023-05-14T00:03:23;8.48;;;4.18;;
66721;SDS011;53633;49.932;10.884;2023-05-14T00:05:49;9.52;;;4.40;;
66721;SDS011;53633;49.932;10.884;2023-05-14T00:08:18;10.93;;;4.73;;
66721;SDS011;53633;49.932;10.884;2023-05-14T00:10:44;9.43;;;4.97;;
66721;SDS011;53633;49.932;10.884;2023-05-14T00:13:11;12.45;;;4.53;;
66721;SDS011;53633;49.932;10.884;2023-05-14T00:15:38;8.88;;;4.32;;
66721;SDS011;53633;49.932;10.884;2023-05-14T00:18:05;9.38;;;4.55;;
66721;SDS011;53633;49.932;10.884;2023-05-14T00:20:31;11.43;;;5.30;;
66721;SDS011;53633;49.932;10.884;2023-05-14T00:22:58;9.48;;;4.70;;
66721;SDS011;53633;49.932;10.884;2023-05-14T00:25:26;12.27;;;5.10;;
66721;SDS011;53633;49.932;10.884;2023-05-14T00:27:53;9.82;;;4.70;;
66721;SDS011;53633;49.932;10.884;2023-05-14T00:30:20;9.70;;;4.30;;
66721;SDS011;53633;49.932;10.884;2023-05-14T00:32:47;8.70;;;4.30;;
66721;SDS011;53633;49.932;10.884;2023-05-14T00:35:13;9.23;;;4.50;;
66721;SDS011;53633;49.932;10.884;2023-05-14T00:37:40;10.25;;;4.57;;
66721;SDS011;53633;49.932;10.884;2023-05-14T00:40:07;9.93;;;4.65;;
66721;SDS011;53633;49.932;10.884;2023-05-14T00:42:36;10.60;;;4.78;;
66721;SDS011;53633;49.932;10.884;2023-05-14T00:45:03;10.37;;;4.50;;
66721;SDS011;53633;49.932;10.884;2023-05-14T00:47:31;9.65;;;4.30;;
66721;SDS011;53633;49.932;10.884;2023-05-14T00:49:58;11.85;;;5.03;;
66721;SDS011;53633;49.932;10.884;2023-05-14T00:52:24;9.90;;;4.28;;
66721;SDS011;53633;49.932;10.884;2023-05-14T00:54:51;10.65;;;5.35;;
66721;SDS011;53633;49.932;10.884;2023-05-14T00:57:19;9.63;;;4.70;;
66721;SDS011;53633;49.932;10.884;2023-05-14T00:59:47;9.88;;;5.03;;
66721;SDS011;53633;49.932;10.884;2023-05-14T01:02:14;9.82;;;5.00;;
66721;SDS011;53633;49.932;10.884;2023-05-14T01:04:40;10.38;;;4.93;;
66721;SDS011;53633;49.932;10.884;2023-05-14T01:07:09;11.30;;;5.20;;
66721;SDS011;53633;49.932;10.884;2023-05-14T01:09:43;9.47;;;4.67;;
66721;SDS011;53633;49.932;10.884;2023-05-14T01:12:16;10.50;;;4.90;;
66721;SDS011;53633;49.932;10.884;2023-05-14T01:14:51;9.93;;;4.82;;
66721;SDS011;53633;49.932;10.884;2023-05-14T01:17:20;10.23;;;4.65;;
66721;SDS011;53633;49.932;10.884;2023-05-14T01:19:48;9.10;;;4.38;;
66721;SDS011;53633;49.932;10.884;2023-05-14T01:22:18;8.97;;;4.27;;
66721;SDS011;53633;49.932;10.884;2023-05-14T01:24:44;9.82;;;4.53;;
66721;SDS011;53633;49.932;10.884;2023-05-14T01:27:13;9.55;;;4.32;;
66721;SDS011;53633;49.932;10.884;2023-05-14T01:29:48;10.05;;;4.75;;
66721;SDS011;53633;49.932;10.884;2023-05-14T01:32:18;8.63;;;4.25;;
66721;SDS011;53633;49.932;10.884;2023-05-14T01:34:46;8.80;;;3.93;;
66721;SDS011;53633;49.932;10.884;2023-05-14T01:37:15;9.55;;;4.10;;
66721;SDS011;53633;49.932;10.884;2023-05-14T01:39:44;7.88;;;4.03;;
66721;SDS011;53633;49.932;10.884;2023-05-14T01:42:11;8.90;;;4.50;;
66721;SDS011;53633;49.932;10.884;2023-05-14T01:44:38;9.07;;;3.90;;
66721;SDS011;53633;49.932;10.884;2023-05-14T01:47:05;8.57;;;3.87;;
66721;SDS011;53633;49.932;10.884;2023-05-14T01:49:32;9.80;;;4.85;;
66721;SDS011;53633;49.932;10.884;2023-05-14T01:51:59;8.35;;;4.00;;
66721;SDS011;53633;49.932;10.884;2023-05-14T01:54:27;8.60;;;4.30;;
66721;SDS011;53633;49.932;10.884;2023-05-14T01:56:54;8.52;;;4.10;;
66721;SDS011;53633;49.932;10.884;2023-05-14T01:59:20;10.33;;;4.33;;
66721;SDS011;53633;49.932;10.884;2023-05-14T02:01:47;7.97;;;4.25;;
66721;SDS011;53633;49.932;10.884;2023-05-14T02:04:14;8.85;;;4.20;;
66721;SDS011;53633;49.932;10.884;2023-05-14T02:06:41;8.10;;;3.67;;
66721;SDS011;53633;49.932;10.884;2023-05-14T02:09:07;8.95;;;4.20;;
66721;SDS011;53633;49.932;10.884;2023-05-14T02:11:35;7.53;;;3.60;;
66721;SDS011;53633;49.932;10.884;2023-05-14T02:14:02;8.90;;;4.20;;
66721;SDS011;53633;49.932;10.884;2023-05-14T02:16:29;9.52;;;4.13;;
66721;SDS011;53633;49.932;10.884;2023-05-14T02:18:55;9.50;;;4.10;;
66721;SDS011;53633;49.932;10.884;2023-05-14T02:21:22;9.88;;;3.75;;
66721;SDS011;53633;49.932;10.884;2023-05-14T02:23:49;8.80;;;3.90;;
66721;SDS011;53633;49.932;10.884;2023-05-14T02:26:16;10.00;;;3.95;;
66721;SDS011;53633;49.932;10.884;2023-05-14T02:28:44;9.98;;;4.13;;
66721;SDS011;53633;49.932;10.884;2023-05-14T02:31:11;8.60;;;3.95;;
66721;SDS011;53633;49.932;10.884;2023-05-14T02:33:37;8.05;;;4.15;;
66721;SDS011;53633;49.932;10.884;2023-05-14T02:36:04;10.10;;;4.03;;
66721;SDS011;53633;49.932;10.884;2023-05-14T02:38:31;8.25;;;3.60;;
66721;SDS011;53633;49.932;10.884;2023-05-14T02:40:58;11.98;;;4.30;;
66721;SDS011;53633;49.932;10.884;2023-05-14T02:43:24;8.32;;;4.22;;
66721;SDS011;53633;49.932;10.884;2023-05-14T02:45:52;8.98;;;3.90;;
66721;SDS011;53633;49.932;10.884;2023-05-14T02:48:19;9.37;;;4.10;;
66721;SDS011;53633;49.932;10.884;2023-05-14T02:50:46;9.05;;;3.78;;
66721;SDS011;53633;49.932;10.884;2023-05-14T02:53:15;9.05;;;3.88;;
66721;SDS011;53633;49.932;10.884;2023-05-14T02:55:41;8.52;;;3.90;;
66721;SDS011;53633;49.932;10.884;2023-05-14T02:58:08;8.43;;;3.78;;
66721;SDS011;53633;49.932;10.884;2023-05-14T03:00:35;9.07;;;4.10;;
66721;SDS011;53633;49.932;10.884;2023-05-14T03:03:04;8.25;;;4.07;;
66721;SDS011;53633;49.932;10.884;2023-05-14T03:05:31;9.98;;;4.13;;
66721;SDS011;53633;49.932;10.884;2023-05-14T03:07:57;9.10;;;3.63;;
66721;SDS011;53633;49.932;10.884;2023-05-14T03:10:24;8.00;;;3.83;;
66721;SDS011;53633;49.932;10.884;2023-05-14T03:12:51;8.17;;;3.70;;
66721;SDS011;53633;49.932;10.884;2023-05-14T03:15:18;8.65;;;3.88;;
66721;SDS011;53633;49.932;10.884;2023-05-14T03:17:44;8.70;;;3.83;;
66721;SDS011;53633;49.932;10.884;2023-05-14T03:20:13;9.43;;;4.25;;
66721;SDS011;53633;49.932;10.884;2023-05-14T03:22:39;8.70;;;4.07;;
66721;SDS011;53633;49.932;10.884;2023-05-14T03:25:06;8.43;;;3.60;;
66721;SDS011;53633;49.932;10.884;2023-05-14T03:27:34;8.48;;;3.75;;
66721;SDS011;53633;49.932;10.884;2023-05-14T03:30:00;9.75;;;3.90;;
66721;SDS011;53633;49.932;10.884;2023-05-14T03:32:27;8.88;;;3.88;;
66721;SDS011;53633;49.932;10.884;2023-05-14T03:34:54;8.70;;;3.95;;
66721;SDS011;53633;49.932;10.884;2023-05-14T03:40:05;9.35;;;4.10;;
66721;SDS011;53633;49.932;10.884;2023-05-14T03:42:32;9.20;;;3.97;;
66721;SDS011;53633;49.932;10.884;2023-05-14T03:44:59;8.98;;;4.15;;
66721;SDS011;53633;49.932;10.884;2023-05-14T03:47:25;8.32;;;3.88;;
66721;SDS011;53633;49.932;10.884;2023-05-14T03:49:52;9.10;;;4.00;;
66721;SDS011;53633;49.932;10.884;2023-05-14T03:52:19;8.57;;;3.60;;
66721;SDS011;53633;49.932;10.884;2023-05-14T03:54:58;10.45;;;4.50;;
66721;SDS011;53633;49.932;10.884;2023-05-14T03:57:24;8.25;;;4.07;;
66721;SDS011;53633;49.932;10.884;2023-05-14T03:59:51;8.15;;;3.90;;
66721;SDS011;53633;49.932;10.884;2023-05-14T04:02:18;10.10;;;3.90;;
66721;SDS011;53633;49.932;10.884;2023-05-14T04:04:45;8.98;;;3.78;;
66721;SDS011;53633;49.932;10.884;2023-05-14T04:07:11;8.27;;;3.88;;
66721;SDS011;53633;49.932;10.884;2023-05-14T04:09:38;8.45;;;3.95;;
66721;SDS011;53633;49.932;10.884;2023-05-14T04:12:07;8.57;;;3.63;;
66721;SDS011;53633;49.932;10.884;2023-05-14T04:14:34;7.73;;;3.27;;
66721;SDS011;53633;49.932;10.884;2023-05-14T04:17:01;8.07;;;3.22;;
66721;SDS011;53633;49.932;10.884;2023-05-14T04:19:27;9.10;;;4.00;;
66721;SDS011;53633;49.932;10.884;2023-05-14T04:21:54;7.45;;;3.58;;
66721;SDS011;53633;49.932;10.884;2023-05-14T04:24:21;8.27;;;3.60;;
66721;SDS011;53633;49.932;10.884;2023-05-14T04:26:47;6.93;;;3.03;;
66721;SDS011;53633;49.932;10.884;2023-05-14T04:29:15;9.52;;;3.55;;
66721;SDS011;53633;49.932;10.884;2023-05-14T04:31:42;7.75;;;3.75;;
66721;SDS011;53633;49.932;10.884;2023-05-14T04:34:09;7.72;;;3.72;;
66721;SDS011;53633;49.932;10.884;2023-05-14T04:36:36;8.80;;;3.67;;
66721;SDS011;53633;49.932;10.884;2023-05-14T04:39:02;7.33;;;3.83;;
66721;SDS011;53633;49.932;10.884;2023-05-14T04:41:29;7.20;;;3.70;;
66721;SDS011;53633;49.932;10.884;2023-05-14T04:43:57;10.85;;;4.05;;
66721;SDS011;53633;49.932;10.884;2023-05-14T04:46:27;8.18;;;3.85;;
66721;SDS011;53633;49.932;10.884;2023-05-14T04:48:54;9.65;;;3.83;;
66721;SDS011;53633;49.932;10.884;2023-05-14T04:51:21;8.23;;;4.17;;
66721;SDS011;53633;49.932;10.884;2023-05-14T04:53:48;10.13;;;4.25;;
66721;SDS011;53633;49.932;10.884;2023-05-14T04:56:14;7.68;;;3.72;;
66721;SDS011;53633;49.932;10.884;2023-05-14T04:58:41;8.63;;;4.03;;
66721;SDS011;53633;49.932;10.884;2023-05-14T05:01:08;9.15;;;4.28;;
66721;SDS011;53633;49.932;10.884;2023-05-14T05:03:36;7.17;;;3.50;;
66721;SDS011;53633;49.932;10.884;2023-05-14T05:06:03;7.80;;;3.78;;
66721;SDS011;53633;49.932;10.884;2023-05-14T05:08:30;10.50;;;3.97;;
66721;SDS011;53633;49.932;10.884;2023-05-14T05:10:56;8.90;;;3.83;;
66721;SDS011;53633;49.932;10.884;2023-05-14T05:13:23;8.57;;;3.83;;
66721;SDS011;53633;49.932;10.884;2023-05-14T05:15:50;10.70;;;4.10;;
66721;SDS011;53633;49.932;10.884;2023-05-14T05:18:16;8.32;;;3.75;;
66721;SDS011;53633;49.932;10.884;2023-05-14T05:20:44;8.88;;;3.33;;
66721;SDS011;53633;49.932;10.884;2023-05-14T05:23:11;7.28;;;3.35;;
66721;SDS011;53633;49.932;10.884;2023-05-14T05:25:38;8.95;;;4.07;;
66721;SDS011;53633;49.932;10.884;2023-05-14T05:28:04;7.93;;;3.90;;
66721;SDS011;53633;49.932;10.884;2023-05-14T05:30:31;8.00;;;3.85;;
66721;SDS011;53633;49.932;10.884;2023-05-14T05:32:58;8.38;;;3.83;;
66721;SDS011;53633;49.932;10.884;2023-05-14T05:35:25;8.25;;;3.90;;
66721;SDS011;53633;49.932;10.884;2023-05-14T05:37:53;8.10;;;4.13;;
66721;SDS011;53633;49.932;10.884;2023-05-14T05:40:19;7.43;;;3.47;;
66721;SDS011;53633;49.932;10.884;2023-05-14T05:42:46;8.35;;;3.80;;
66721;SDS011;53633;49.932;10.884;2023-05-14T05:45:13;6.72;;;3.28;;
66721;SDS011;53633;49.932;10.884;2023-05-14T05:47:40;8.95;;;3.72;;
66721;SDS011;53633;49.932;10.884;2023-05-14T05:50:07;8.05;;;3.85;;
66721;SDS011;53633;49.932;10.884;2023-05-14T05:52:34;7.77;;;3.57;;
66721;SDS011;53633;49.932;10.884;2023-05-14T05:55:02;7.78;;;3.50;;
66721;SDS011;53633;49.932;10.884;2023-05-14T05:57:29;7.95;;;3.80;;
66721;SDS011;53633;49.932;10.884;2023-05-14T05:59:56;8.15;;;3.97;;
66721;SDS011;53633;49.932;10.884;2023-05-14T06:02:23;7.88;;;3.80;;
66721;SDS011;53633;49.932;10.884;2023-05-14T06:04:50;6.67;;;3.53;;
66721;SDS011;53633;49.932;10.884;2023-05-14T06:07:17;8.82;;;3.80;;
66721;SDS011;53633;49.932;10.884;2023-05-14T06:09:43;8.00;;;4.15;;
66721;SDS011;53633;49.932;10.884;2023-05-14T06:12:11;6.68;;;3.22;;
66721;SDS011;53633;49.932;10.884;2023-05-14T06:14:38;6.97;;;3.40;;
66721;SDS011;53633;49.932;10.884;2023-05-14T06:17:04;7.17;;;2.80;;
66721;SDS011;53633;49.932;10.884;2023-05-14T06:19:31;7.13;;;3.35;;
66721;SDS011;53633;49.932;10.884;2023-05-14T06:21:58;6.88;;;3.60;;
66721;SDS011;53633;49.932;10.884;2023-05-14T06:24:24;7.57;;;3.17;;
66721;SDS011;53633;49.932;10.884;2023-05-14T06:26:51;7.32;;;3.35;;
66721;SDS011;53633;49.932;10.884;2023-05-14T06:29:19;7.13;;;3.80;;
66721;SDS011;53633;49.932;10.884;2023-05-14T06:31:46;7.63;;;3.78;;
66721;SDS011;53633;49.932;10.884;2023-05-14T06:34:12;6.93;;;3.50;;
66721;SDS011;53633;49.932;10.884;2023-05-14T06:36:39;6.82;;;3.67;;
66721;SDS011;53633;49.932;10.884;2023-05-14T06:39:06;6.50;;;3.20;;
66721;SDS011;53633;49.932;10.884;2023-05-14T06:41:32;7.00;;;3.30;;
66721;SDS011;53633;49.932;10.884;2023-05-14T06:43:59;6.43;;;3.45;;
66721;SDS011;53633;49.932;10.884;2023-05-14T06:46:27;6.85;;;3.25;;
66721;SDS011;53633;49.932;10.884;2023-05-14T06:48:54;7.68;;;3.40;;
66721;SDS011;53633;49.932;10.884;2023-05-14T06:51:24;7.28;;;3.47;;
66721;SDS011;53633;49.932;10.884;2023-05-14T06:53:50;6.70;;;3.30;;
66721;SDS011;53633;49.932;10.884;2023-05-14T06:56:17;6.95;;;4.03;;
66721;SDS011;53633;49.932;10.884;2023-05-14T06:58:44;11.25;;;3.60;;
66721;SDS011;53633;49.932;10.884;2023-05-14T07:01:10;10.27;;;3.75;;
66721;SDS011;53633;49.932;10.884;2023-05-14T07:03:38;6.80;;;3.38;;
66721;SDS011;53633;49.932;10.884;2023-05-14T07:06:05;6.40;;;3.40;;
66721;SDS011;53633;49.932;10.884;2023-05-14T07:08:32;6.72;;;3.30;;
66721;SDS011;53633;49.932;10.884;2023-05-14T07:10:59;6.63;;;3.28;;
66721;SDS011;53633;49.932;10.884;2023-05-14T07:13:25;7.35;;;3.30;;
66721;SDS011;53633;49.932;10.884;2023-05-14T07:15:54;8.20;;;3.60;;
66721;SDS011;53633;49.932;10.884;2023-05-14T07:18:20;7.33;;;3.27;;
66721;SDS011;53633;49.932;10.884;2023-05-14T07:20:48;5.88;;;3.00;;
66721;SDS011;53633;49.932;10.884;2023-05-14T07:23:15;7.40;;;3.85;;
66721;SDS011;53633;49.932;10.884;2023-05-14T07:25:45;7.70;;;3.85;;
66721;SDS011;53633;49.932;10.884;2023-05-14T07:28:11;7.82;;;3.45;;
66721;SDS011;53633;49.932;10.884;2023-05-14T07:30:38;6.70;;;3.57;;
66721;SDS011;53633;49.932;10.884;2023-05-14T07:33:05;7.80;;;2.92;;
66721;SDS011;53633;49.932;10.884;2023-05-14T07:35:32;8.75;;;3.30;;
66721;SDS011;53633;49.932;10.884;2023-05-14T07:38:00;6.90;;;3.08;;
66721;SDS011;53633;49.932;10.884;2023-05-14T07:40:27;8.57;;;3.78;;
66721;SDS011;53633;49.932;10.884;2023-05-14T07:42:53;6.47;;;3.23;;
66721;SDS011;53633;49.932;10.884;2023-05-14T07:45:20;7.35;;;3.35;;
66721;SDS011;53633;49.932;10.884;2023-05-14T07:47:47;8.27;;;3.33;;
66721;SDS011;53633;49.932;10.884;2023-05-14T07:50:14;7.18;;;3.22;;
66721;SDS011;53633;49.932;10.884;2023-05-14T07:52:40;7.10;;;3.22;;
66721;SDS011;53633;49.932;10.884;2023-05-14T07:55:09;8.87;;;2.60;;
66721;SDS011;53633;49.932;10.884;2023-05-14T07:57:36;7.22;;;2.90;;
66721;SDS011;53633;49.932;10.884;2023-05-14T08:00:03;5.93;;;2.70;;
66721;SDS011;53633;49.932;10.884;2023-05-14T08:02:30;6.78;;;3.35;;
66721;SDS011;53633;49.932;10.884;2023-05-14T08:04:57;6.47;;;2.95;;
66721;SDS011;53633;49.932;10.884;2023-05-14T08:07:24;6.77;;;3.10;;
66721;SDS011;53633;49.932;10.884;2023-05-14T08:09:51;7.10;;;2.80;;
66721;SDS011;53633;49.932;10.884;2023-05-14T08:12:19;7.28;;;3.05;;
66721;SDS011;53633;49.932;10.884;2023-05-14T08:14:45;7.88;;;3.13;;
66721;SDS011;53633;49.932;10.884;2023-05-14T08:17:12;7.13;;;3.30;;
66721;SDS011;53633;49.932;10.884;2023-05-14T08:19:39;6.53;;;3.00;;
66721;SDS011;53633;49.932;10.884;2023-05-14T08:22:06;7.80;;;3.60;;
66721;SDS011;53633;49.932;10.884;2023-05-14T08:24:32;7.40;;;3.17;;
66721;SDS011;53633;49.932;10.884;2023-05-14T08:26:59;7.57;;;3.10;;
66721;SDS011;53633;49.932;10.884;2023-05-14T08:29:27;8.02;;;3.40;;
66721;SDS011;53633;49.932;10.884;2023-05-14T08:31:54;7.50;;;3.10;;
66721;SDS011;53633;49.932;10.884;2023-05-14T08:34:20;7.38;;;2.90;;
66721;SDS011;53633;49.932;10.884;2023-05-14T08:36:47;6.00;;;3.03;;
66721;SDS011;53633;49.932;10.884;2023-05-14T08:39:14;7.30;;;3.17;;
66721;SDS011;53633;49.932;10.884;2023-05-14T08:41:40;7.53;;;3.30;;
66721;SDS011;53633;49.932;10.884;2023-05-14T08:44:09;6.93;;;3.17;;
66721;SDS011;53633;49.932;10.884;2023-05-14T08:46:39;7.70;;;3.35;;
66721;SDS011;53633;49.932;10.884;2023-05-14T08:49:09;7.75;;;3.47;;
66721;SDS011;53633;49.932;10.884;2023-05-14T08:51:47;7.30;;;2.95;;
66721;SDS011;53633;49.932;10.884;2023-05-14T08:54:14;8.80;;;3.00;;
66721;SDS011;53633;49.932;10.884;2023-05-14T08:56:42;8.23;;;3.13;;
66721;SDS011;53633;49.932;10.884;2023-05-14T08:59:09;6.72;;;2.53;;
66721;SDS011;53633;49.932;10.884;2023-05-14T09:01:36;7.93;;;3.97;;
66721;SDS011;53633;49.932;10.884;2023-05-14T09:04:05;6.60;;;2.90;;
66721;SDS011;53633;49.932;10.884;2023-05-14T09:06:33;7.47;;;3.10;;
66721;SDS011;53633;49.932;10.884;2023-05-14T09:09:00;7.40;;;3.77;;
66721;SDS011;53633;49.932;10.884;2023-05-14T09:11:27;7.40;;;3.63;;
66721;SDS011;53633;49.932;10.884;2023-05-14T09:13:54;6.97;;;3.00;;
66721;SDS011;53633;49.932;10.884;2023-05-14T09:16:21;7.72;;;3.17;;
66721;SDS011;53633;49.932;10.884;2023-05-14T09:18:49;7.30;;;3.28;;
66721;SDS011;53633;49.932;10.884;2023-05-14T09:21:18;6.83;;;2.67;;
66721;SDS011;53633;49.932;10.884;2023-05-14T09:23:45;7.18;;;3.10;;
66721;SDS011;53633;49.932;10.884;2023-05-14T09:26:15;6.75;;;3.03;;
66721;SDS011;53633;49.932;10.884;2023-05-14T09:28:42;6.78;;;2.60;;
66721;SDS011;53633;49.932;10.884;2023-05-14T09:31:10;6.32;;;3.17;;
66721;SDS011;53633;49.932;10.884;2023-05-14T09:33:36;7.00;;;2.77;;
66721;SDS011;53633;49.932;10.884;2023-05-14T09:36:03;6.10;;;2.63;;
66721;SDS011;53633;49.932;10.884;2023-05-14T09:38:31;5.80;;;2.63;;
66721;SDS011;53633;49.932;10.884;2023-05-14T09:40:59;6.63;;;2.78;;
66721;SDS011;53633;49.932;10.884;2023-05-14T09:43:26;6.95;;;2.83;;
66721;SDS011;53633;49.932;10.884;2023-05-14T09:45:52;5.73;;;2.40;;
66721;SDS011;53633;49.932;10.884;2023-05-14T09:48:19;6.85;;;3.35;;
66721;SDS011;53633;49.932;10.884;2023-05-14T09:50:46;5.82;;;2.95;;
66721;SDS011;53633;49.932;10.884;2023-05-14T09:53:13;7.25;;;2.88;;
66721;SDS011;53633;49.932;10.884;2023-05-14T09:55:41;6.65;;;3.05;;
66721;SDS011;53633;49.932;10.884;2023-05-14T09:58:07;7.00;;;2.73;;
66721;SDS011;53633;49.932;10.884;2023-05-14T10:00:34;7.07;;;2.58;;
66721;SDS011;53633;49.932;10.884;2023-05-14T10:03:03;5.95;;;2.78;;
66721;SDS011;53633;49.932;10.884;2023-05-14T10:05:32;6.00;;;2.42;;
66721;SDS011;53633;49.932;10.884;2023-05-14T10:08:02;6.10;;;2.42;;
66721;SDS011;53633;49.932;10.884;2023-05-14T10:10:34;7.53;;;2.67;;
66721;SDS011;53633;49.932;10.884;2023-05-14T10:13:04;5.55;;;2.55;;
66721;SDS011;53633;49.932;10.884;2023-05-14T10:15:36;6.65;;;2.70;;
66721;SDS011;53633;49.932;10.884;2023-05-14T10:18:06;6.00;;;2.55;;
66721;SDS011;53633;49.932;10.884;2023-05-14T10:20:35;5.97;;;2.78;;
66721;SDS011;53633;49.932;10.884;2023-05-14T10:23:03;6.10;;;2.70;;
66721;SDS011;53633;49.932;10.884;2023-05-14T10:25:31;7.03;;;2.67;;
66721;SDS011;53633;49.932;10.884;2023-05-14T10:27:58;6.22;;;2.80;;
66721;SDS011;53633;49.932;10.884;2023-05-14T10:30:26;5.65;;;2.90;;
66721;SDS011;53633;49.932;10.884;2023-05-14T10:33:08;8.77;;;3.03;;
66721;SDS011;53633;49.932;10.884;2023-05-14T10:35:49;6.63;;;2.43;;
66721;SDS011;53633;49.932;10.884;2023-05-14T10:38:20;6.28;;;2.80;;
66721;SDS011;53633;49.932;10.884;2023-05-14T10:40:48;7.07;;;2.75;;
66721;SDS011;53633;49.932;10.884;2023-05-14T10:43:18;6.82;;;2.47;;
66721;SDS011;53633;49.932;10.884;2023-05-14T10:45:46;6.35;;;2.88;;
66721;SDS011;53633;49.932;10.884;2023-05-14T10:48:13;6.80;;;2.90;;
66721;SDS011;53633;49.932;10.884;2023-05-14T10:50:40;6.18;;;2.63;;
66721;SDS011;53633;49.932;10.884;2023-05-14T10:53:09;5.15;;;2.55;;
66721;SDS011;53633;49.932;10.884;2023-05-14T10:55:36;6.43;;;2.40;;
66721;SDS011;53633;49.932;10.884;2023-05-14T10:58:04;5.63;;;2.30;;
66721;SDS011;53633;49.932;10.884;2023-05-14T11:00:32;5.50;;;2.40;;
66721;SDS011;53633;49.932;10.884;2023-05-14T11:03:02;5.03;;;2.38;;
66721;SDS011;53633;49.932;10.884;2023-05-14T11:05:29;5.70;;;2.50;;
66721;SDS011;53633;49.932;10.884;2023-05-14T11:07:57;5.63;;;2.30;;
66721;SDS011;53633;49.932;10.884;2023-05-14T11:10:24;6.07;;;2.63;;
66721;SDS011;53633;49.932;10.884;2023-05-14T11:12:52;5.53;;;2.30;;
66721;SDS011;53633;49.932;10.884;2023-05-14T11:15:19;4.65;;;2.08;;
66721;SDS011;53633;49.932;10.884;2023-05-14T11:17:47;5.78;;;2.47;;
66721;SDS011;53633;49.932;10.884;2023-05-14T11:20:17;6.13;;;2.30;;
66721;SDS011;53633;49.932;10.884;2023-05-14T11:22:45;5.95;;;2.60;;
66721;SDS011;53633;49.932;10.884;2023-05-14T11:25:13;6.70;;;2.47;;
66721;SDS011;53633;49.932;10.884;2023-05-14T11:27:40;6.93;;;2.38;;
66721;SDS011;53633;49.932;10.884;2023-05-14T11:30:11;5.43;;;2.40;;
66721;SDS011;53633;49.932;10.884;2023-05-14T11:32:39;5.10;;;2.03;;
66721;SDS011;53633;49.932;10.884;2023-05-14T11:35:06;6.55;;;2.60;;
66721;SDS011;53633;49.932;10.884;2023-05-14T11:37:35;5.37;;;2.10;;
66721;SDS011;53633;49.932;10.884;2023-05-14T11:40:06;7.45;;;2.40;;
66721;SDS011;53633;49.932;10.884;2023-05-14T11:42:33;5.53;;;2.30;;
66721;SDS011;53633;49.932;10.884;2023-05-14T11:45:01;5.25;;;2.40;;
66721;SDS011;53633;49.932;10.884;2023-05-14T11:47:28;5.78;;;2.88;;
66721;SDS011;53633;49.932;10.884;2023-05-14T11:49:55;7.47;;;2.93;;
66721;SDS011;53633;49.932;10.884;2023-05-14T11:52:22;7.47;;;2.95;;
66721;SDS011;53633;49.932;10.884;2023-05-14T11:54:50;6.20;;;2.80;;
66721;SDS011;53633;49.932;10.884;2023-05-14T11:57:18;6.32;;;2.92;;
66721;SDS011;53633;49.932;10.884;2023-05-14T11:59:46;6.72;;;3.20;;
66721;SDS011;53633;49.932;10.884;2023-05-14T12:02:13;6.23;;;2.97;;
66721;SDS011;53633;49.932;10.884;2023-05-14T12:04:43;5.97;;;2.70;;
66721;SDS011;53633;49.932;10.884;2023-05-14T12:07:14;5.43;;;2.50;;
66721;SDS011;53633;49.932;10.884;2023-05-14T12:09:42;6.93;;;2.72;;
66721;SDS011;53633;49.932;10.884;2023-05-14T12:12:12;6.63;;;3.00;;
66721;SDS011;53633;49.932;10.884;2023-05-14T12:14:39;6.20;;;2.90;;
66721;SDS011;53633;49.932;10.884;2023-05-14T12:17:11;7.70;;;2.80;;
66721;SDS011;53633;49.932;10.884;2023-05-14T12:19:39;5.00;;;2.35;;
66721;SDS011;53633;49.932;10.884;2023-05-14T12:22:07;4.88;;;2.50;;
66721;SDS011;53633;49.932;10.884;2023-05-14T12:24:34;6.18;;;2.90;;
66721;SDS011;53633;49.932;10.884;2023-05-14T12:27:02;5.80;;;2.80;;
66721;SDS011;53633;49.932;10.884;2023-05-14T12:29:33;6.05;;;2.70;;
66721;SDS011;53633;49.932;10.884;2023-05-14T12:32:00;6.68;;;2.58;;
66721;SDS011;53633;49.932;10.884;2023-05-14T12:34:27;7.28;;;2.97;;
66721;SDS011;53633;49.932;10.884;2023-05-14T12:36:54;5.07;;;2.42;;
66721;SDS011;53633;49.932;10.884;2023-05-14T12:39:21;5.10;;;2.37;;
66721;SDS011;53633;49.932;10.884;2023-05-14T12:41:48;5.50;;;2.83;;
66721;SDS011;53633;49.932;10.884;2023-05-14T12:44:14;5.90;;;2.42;;
66721;SDS011;53633;49.932;10.884;2023-05-14T12:46:42;5.65;;;2.35;;
66721;SDS011;53633;49.932;10.884;2023-05-14T12:49:09;5.90;;;2.60;;
66721;SDS011;53633;49.932;10.884;2023-05-14T12:51:36;5.57;;;2.50;;
66721;SDS011;53633;49.932;10.884;2023-05-14T12:54:03;6.03;;;3.03;;
66721;SDS011;53633;49.932;10.884;2023-05-14T12:56:29;7.13;;;3.13;;
66721;SDS011;53633;49.932;10.884;2023-05-14T12:58:56;5.78;;;2.75;;
66721;SDS011;53633;49.932;10.884;2023-05-14T13:01:23;4.80;;;2.13;;
66721;SDS011;53633;49.932;10.884;2023-05-14T13:03:51;4.60;;;1.97;;
66721;SDS011;53633;49.932;10.884;2023-05-14T13:06:18;5.90;;;2.60;;
66721;SDS011;53633;49.932;10.884;2023-05-14T13:08:45;5.22;;;2.30;;
66721;SDS011;53633;49.932;10.884;2023-05-14T13:11:11;4.88;;;2.13;;
66721;SDS011;53633;49.932;10.884;2023-05-14T13:13:38;5.00;;;2.30;;
66721;SDS011;53633;49.932;10.884;2023-05-14T13:16:05;5.97;;;2.40;;
66721;SDS011;53633;49.932;10.884;2023-05-14T13:18:32;4.78;;;1.92;;
66721;SDS011;53633;49.932;10.884;2023-05-14T13:21:00;6.38;;;2.50;;
66721;SDS011;53633;49.932;10.884;2023-05-14T13:23:27;5.32;;;2.20;;
66721;SDS011;53633;49.932;10.884;2023-05-14T13:25:54;5.72;;;2.35;;
66721;SDS011;53633;49.932;10.884;2023-05-14T13:28:21;4.57;;;1.87;;
66721;SDS011;53633;49.932;10.884;2023-05-14T13:31:01;5.93;;;2.20;;
66721;SDS011;53633;49.932;10.884;2023-05-14T13:33:29;5.32;;;2.13;;
66721;SDS011;53633;49.932;10.884;2023-05-14T13:35:56;5.10;;;2.08;;
66721;SDS011;53633;49.932;10.884;2023-05-14T13:38:24;5.72;;;2.38;;
66721;SDS011;53633;49.932;10.884;2023-05-14T13:40:50;4.73;;;2.13;;
66721;SDS011;53633;49.932;10.884;2023-05-14T13:43:17;5.18;;;1.90;;
66721;SDS011;53633;49.932;10.884;2023-05-14T13:45:44;4.88;;;2.10;;
66721;SDS011;53633;49.932;10.884;2023-05-14T13:48:10;5.50;;;2.22;;
66721;SDS011;53633;49.932;10.884;2023-05-14T13:50:37;5.55;;;2.35;;
66721;SDS011;53633;49.932;10.884;2023-05-14T13:53:04;4.73;;;2.00;;
66721;SDS011;53633;49.932;10.884;2023-05-14T13:55:32;5.95;;;2.50;;
66721;SDS011;53633;49.932;10.884;2023-05-14T13:57:59;5.97;;;2.63;;
66721;SDS011;53633;49.932;10.884;2023-05-14T14:00:26;5.20;;;2.20;;
66721;SDS011;53633;49.932;10.884;2023-05-14T14:02:53;7.03;;;2.72;;
66721;SDS011;53633;49.932;10.884;2023-05-14T14:05:20;5.80;;;2.33;;
66721;SDS011;53633;49.932;10.884;2023-05-14T14:07:47;5.20;;;2.20;;
66721;SDS011;53633;49.932;10.884;2023-05-14T14:10:16;6.00;;;2.92;;
66721;SDS011;53633;49.932;10.884;2023-05-14T14:12:44;5.50;;;2.53;;
66721;SDS011;53633;49.932;10.884;2023-05-14T14:15:11;5.70;;;2.38;;
66721;SDS011;53633;49.932;10.884;2023-05-14T14:17:38;6.03;;;2.20;;
66721;SDS011;53633;49.932;10.884;2023-05-14T14:20:05;7.00;;;2.25;;
66721;SDS011;53633;49.932;10.884;2023-05-14T14:22:33;4.60;;;2.13;;
66721;SDS011;53633;49.932;10.884;2023-05-14T14:24:59;5.40;;;2.40;;
66721;SDS011;53633;49.932;10.884;2023-05-14T14:27:26;5.32;;;2.33;;
66721;SDS011;53633;49.932;10.884;2023-05-14T14:29:54;6.10;;;1.97;;
66721;SDS011;53633;49.932;10.884;2023-05-14T14:32:21;6.07;;;2.20;;
66721;SDS011;53633;49.932;10.884;2023-05-14T14:34:47;5.40;;;2.63;;
66721;SDS011;53633;49.932;10.884;2023-05-14T14:37:14;5.13;;;2.25;;